sensor_id;sensor_type;location;lat;lon;timestamp;temperature;humidity
7159;DHT22;63175;52.374;13.132;2023-05-31T00:00:36;16.80;57.90
7159;DHT22;63175;52.374;13.132;2023-05-31T00:03:03;16.80;58.20
7159;DHT22;63175;52.374;13.132;2023-05-31T00:05:31;16.80;58.40
7159;DHT22;63175;52.374;13.132;2023-05-31T00:07:58;16.70;58.50
7159;DHT22;63175;52.374;13.132;2023-05-31T00:10:25;16.70;58.60
7159;DHT22;63175;52.374;13.132;2023-05-31T00:12:52;16.70;58.60
7159;DHT22;63175;52.374;13.132;2023-05-31T00:15:19;16.60;58.70
7159;DHT22;63175;52.374;13.132;2023-05-31T00:17:46;16.60;58.90
7159;DHT22;63175;52.374;13.132;2023-05-31T00:20:12;16.60;59.10
7159;DHT22;63175;52.374;13.132;2023-05-31T00:22:41;16.50;59.20
7159;DHT22;63175;52.374;13.132;2023-05-31T00:25:08;16.50;59.40
7159;DHT22;63175;52.374;13.132;2023-05-31T00:27:35;16.50;59.60
7159;DHT22;63175;52.374;13.132;2023-05-31T00:30:02;16.40;59.70
7159;DHT22;63175;52.374;13.132;2023-05-31T00:32:29;16.40;59.90
7159;DHT22;63175;52.374;13.132;2023-05-31T00:34:56;16.30;60.10
7159;DHT22;63175;52.374;13.132;2023-05-31T00:37:23;16.30;60.50
7159;DHT22;63175;52.374;13.132;2023-05-31T00:39:51;16.30;60.70
7159;DHT22;63175;52.374;13.132;2023-05-31T00:42:18;16.20;60.90
7159;DHT22;63175;52.374;13.132;2023-05-31T00:44:44;16.20;61.20
7159;DHT22;63175;52.374;13.132;2023-05-31T00:47:11;16.10;61.30
7159;DHT22;63175;52.374;13.132;2023-05-31T00:49:38;16.10;61.60
7159;DHT22;63175;52.374;13.132;2023-05-31T00:52:06;16.10;61.90
7159;DHT22;63175;52.374;13.132;2023-05-31T00:54:33;16.00;62.20
7159;DHT22;63175;52.374;13.132;2023-05-31T00:57:02;15.90;62.40
7159;DHT22;63175;52.374;13.132;2023-05-31T00:59:29;15.90;62.70
7159;DHT22;63175;52.374;13.132;2023-05-31T01:01:57;15.90;63.00
7159;DHT22;63175;52.374;13.132;2023-05-31T01:04:25;15.80;63.20
7159;DHT22;63175;52.374;13.132;2023-05-31T01:06:52;15.80;63.50
7159;DHT22;63175;52.374;13.132;2023-05-31T01:09:19;15.70;63.50
7159;DHT22;63175;52.374;13.132;2023-05-31T01:12:07;15.70;64.00
7159;DHT22;63175;52.374;13.132;2023-05-31T01:14:46;15.70;64.60
7159;DHT22;63175;52.374;13.132;2023-05-31T01:17:22;15.60;64.80
7159;DHT22;63175;52.374;13.132;2023-05-31T01:19:58;15.50;65.30
7159;DHT22;63175;52.374;13.132;2023-05-31T01:22:36;15.50;65.80
7159;DHT22;63175;52.374;13.132;2023-05-31T01:25:52;15.50;65.90
7159;DHT22;63175;52.374;13.132;2023-05-31T01:28:26;15.40;66.10
7159;DHT22;63175;52.374;13.132;2023-05-31T01:30:56;15.40;66.40
7159;DHT22;63175;52.374;13.132;2023-05-31T01:33:23;15.40;66.70
7159;DHT22;63175;52.374;13.132;2023-05-31T01:35:50;15.40;67.10
7159;DHT22;63175;52.374;13.132;2023-05-31T01:38:16;15.30;67.40
7159;DHT22;63175;52.374;13.132;2023-05-31T01:40:44;15.30;67.70
7159;DHT22;63175;52.374;13.132;2023-05-31T01:43:11;15.30;68.10
7159;DHT22;63175;52.374;13.132;2023-05-31T01:45:41;15.20;68.30
7159;DHT22;63175;52.374;13.132;2023-05-31T01:48:08;15.20;68.60
7159;DHT22;63175;52.374;13.132;2023-05-31T01:50:36;15.20;68.90
7159;DHT22;63175;52.374;13.132;2023-05-31T01:53:03;15.10;69.10
7159;DHT22;63175;52.374;13.132;2023-05-31T01:55:31;15.10;69.50
7159;DHT22;63175;52.374;13.132;2023-05-31T01:57:59;15.10;69.70
7159;DHT22;63175;52.374;13.132;2023-05-31T02:00:27;15.00;70.00
7159;DHT22;63175;52.374;13.132;2023-05-31T02:02:55;15.00;70.40
7159;DHT22;63175;52.374;13.132;2023-05-31T02:05:23;14.90;70.90
7159;DHT22;63175;52.374;13.132;2023-05-31T02:07:50;14.90;71.50
7159;DHT22;63175;52.374;13.132;2023-05-31T02:10:19;14.90;71.70
7159;DHT22;63175;52.374;13.132;2023-05-31T02:12:46;14.80;71.90
7159;DHT22;63175;52.374;13.132;2023-05-31T02:15:15;14.80;72.90
7159;DHT22;63175;52.374;13.132;2023-05-31T02:17:45;14.80;72.80
7159;DHT22;63175;52.374;13.132;2023-05-31T02:20:17;14.80;73.20
7159;DHT22;63175;52.374;13.132;2023-05-31T02:22:45;14.80;73.70
7159;DHT22;63175;52.374;13.132;2023-05-31T02:25:13;14.70;74.00
7159;DHT22;63175;52.374;13.132;2023-05-31T02:27:41;14.70;74.30
7159;DHT22;63175;52.374;13.132;2023-05-31T02:30:10;14.70;74.80
7159;DHT22;63175;52.374;13.132;2023-05-31T02:32:37;14.60;75.30
7159;DHT22;63175;52.374;13.132;2023-05-31T02:35:06;14.60;75.70
7159;DHT22;63175;52.374;13.132;2023-05-31T02:37:36;14.60;76.30
7159;DHT22;63175;52.374;13.132;2023-05-31T02:40:04;14.60;76.90
7159;DHT22;63175;52.374;13.132;2023-05-31T02:42:34;14.60;77.60
7159;DHT22;63175;52.374;13.132;2023-05-31T02:45:01;14.50;78.10
7159;DHT22;63175;52.374;13.132;2023-05-31T02:47:28;14.50;78.70
7159;DHT22;63175;52.374;13.132;2023-05-31T02:49:54;14.50;79.20
7159;DHT22;63175;52.374;13.132;2023-05-31T02:52:21;14.40;79.70
7159;DHT22;63175;52.374;13.132;2023-05-31T02:54:50;14.40;80.40
7159;DHT22;63175;52.374;13.132;2023-05-31T02:57:17;14.30;80.90
7159;DHT22;63175;52.374;13.132;2023-05-31T02:59:44;14.30;81.60
7159;DHT22;63175;52.374;13.132;2023-05-31T03:02:11;14.30;82.10
7159;DHT22;63175;52.374;13.132;2023-05-31T03:04:38;14.30;82.60
7159;DHT22;63175;52.374;13.132;2023-05-31T03:07:07;14.30;83.10
7159;DHT22;63175;52.374;13.132;2023-05-31T03:09:34;14.30;83.70
7159;DHT22;63175;52.374;13.132;2023-05-31T03:12:03;14.20;84.40
7159;DHT22;63175;52.374;13.132;2023-05-31T03:14:30;14.20;85.00
7159;DHT22;63175;52.374;13.132;2023-05-31T03:16:57;14.20;85.60
7159;DHT22;63175;52.374;13.132;2023-05-31T03:19:24;14.10;86.30
7159;DHT22;63175;52.374;13.132;2023-05-31T03:21:51;14.10;86.90
7159;DHT22;63175;52.374;13.132;2023-05-31T03:24:18;14.10;87.40
7159;DHT22;63175;52.374;13.132;2023-05-31T03:26:45;14.10;88.10
7159;DHT22;63175;52.374;13.132;2023-05-31T03:29:13;14.10;89.00
7159;DHT22;63175;52.374;13.132;2023-05-31T03:31:40;14.10;89.60
7159;DHT22;63175;52.374;13.132;2023-05-31T03:34:08;14.10;89.80
7159;DHT22;63175;52.374;13.132;2023-05-31T03:36:35;14.10;90.00
7159;DHT22;63175;52.374;13.132;2023-05-31T03:39:02;14.00;90.00
7159;DHT22;63175;52.374;13.132;2023-05-31T03:41:29;14.10;90.20
7159;DHT22;63175;52.374;13.132;2023-05-31T03:43:56;14.00;90.40
7159;DHT22;63175;52.374;13.132;2023-05-31T03:46:24;14.10;90.60
7159;DHT22;63175;52.374;13.132;2023-05-31T03:48:51;14.10;90.80
7159;DHT22;63175;52.374;13.132;2023-05-31T03:51:19;14.10;90.90
7159;DHT22;63175;52.374;13.132;2023-05-31T03:53:45;14.10;91.10
7159;DHT22;63175;52.374;13.132;2023-05-31T03:56:12;14.10;91.30
7159;DHT22;63175;52.374;13.132;2023-05-31T03:58:39;14.20;91.40
7159;DHT22;63175;52.374;13.132;2023-05-31T04:01:06;14.20;91.60
7159;DHT22;63175;52.374;13.132;2023-05-31T04:03:34;14.20;91.70
7159;DHT22;63175;52.374;13.132;2023-05-31T04:06:02;14.20;91.90
7159;DHT22;63175;52.374;13.132;2023-05-31T04:08:29;14.20;92.00
7159;DHT22;63175;52.374;13.132;2023-05-31T04:10:56;14.20;92.40
7159;DHT22;63175;52.374;13.132;2023-05-31T04:13:23;14.20;92.30
7159;DHT22;63175;52.374;13.132;2023-05-31T04:15:50;14.30;92.50
7159;DHT22;63175;52.374;13.132;2023-05-31T04:18:17;14.30;92.70
7159;DHT22;63175;52.374;13.132;2023-05-31T04:20:45;14.30;92.80
7159;DHT22;63175;52.374;13.132;2023-05-31T04:23:12;14.40;92.80
7159;DHT22;63175;52.374;13.132;2023-05-31T04:25:38;14.30;92.90
7159;DHT22;63175;52.374;13.132;2023-05-31T04:28:05;14.30;93.30
7159;DHT22;63175;52.374;13.132;2023-05-31T04:30:33;14.30;93.60
7159;DHT22;63175;52.374;13.132;2023-05-31T04:33:00;14.30;93.70
7159;DHT22;63175;52.374;13.132;2023-05-31T04:35:30;14.30;93.70
7159;DHT22;63175;52.374;13.132;2023-05-31T04:37:59;14.40;94.00
7159;DHT22;63175;52.374;13.132;2023-05-31T04:40:28;14.40;94.10
7159;DHT22;63175;52.374;13.132;2023-05-31T04:42:57;14.40;94.00
7159;DHT22;63175;52.374;13.132;2023-05-31T04:45:24;14.40;94.00
7159;DHT22;63175;52.374;13.132;2023-05-31T04:47:51;14.50;94.00
7159;DHT22;63175;52.374;13.132;2023-05-31T04:50:17;14.60;94.00
7159;DHT22;63175;52.374;13.132;2023-05-31T04:52:45;14.40;93.80
7159;DHT22;63175;52.374;13.132;2023-05-31T04:55:14;14.70;93.70
7159;DHT22;63175;52.374;13.132;2023-05-31T04:57:40;14.70;93.80
7159;DHT22;63175;52.374;13.132;2023-05-31T05:00:08;14.70;94.00
7159;DHT22;63175;52.374;13.132;2023-05-31T05:02:37;14.70;94.10
7159;DHT22;63175;52.374;13.132;2023-05-31T05:05:04;14.80;94.00
7159;DHT22;63175;52.374;13.132;2023-05-31T05:07:32;14.80;93.70
7159;DHT22;63175;52.374;13.132;2023-05-31T05:10:00;14.90;93.20
7159;DHT22;63175;52.374;13.132;2023-05-31T05:12:28;14.90;93.00
7159;DHT22;63175;52.374;13.132;2023-05-31T05:14:55;14.90;92.90
7159;DHT22;63175;52.374;13.132;2023-05-31T05:17:22;14.90;93.00
7159;DHT22;63175;52.374;13.132;2023-05-31T05:19:49;15.00;92.60
7159;DHT22;63175;52.374;13.132;2023-05-31T05:22:16;15.00;92.40
7159;DHT22;63175;52.374;13.132;2023-05-31T05:24:43;15.10;91.70
7159;DHT22;63175;52.374;13.132;2023-05-31T05:27:09;15.20;91.30
7159;DHT22;63175;52.374;13.132;2023-05-31T05:29:38;15.30;91.00
7159;DHT22;63175;52.374;13.132;2023-05-31T05:32:06;15.30;90.70
7159;DHT22;63175;52.374;13.132;2023-05-31T05:34:33;15.40;90.30
7159;DHT22;63175;52.374;13.132;2023-05-31T05:37:00;15.50;88.50
7159;DHT22;63175;52.374;13.132;2023-05-31T05:39:27;15.50;87.60
7159;DHT22;63175;52.374;13.132;2023-05-31T05:41:54;15.60;87.20
7159;DHT22;63175;52.374;13.132;2023-05-31T05:44:21;15.70;86.90
7159;DHT22;63175;52.374;13.132;2023-05-31T05:46:49;15.70;86.50
7159;DHT22;63175;52.374;13.132;2023-05-31T05:49:16;15.80;86.10
7159;DHT22;63175;52.374;13.132;2023-05-31T05:51:43;15.90;85.50
7159;DHT22;63175;52.374;13.132;2023-05-31T05:54:09;16.00;84.80
7159;DHT22;63175;52.374;13.132;2023-05-31T05:56:36;16.10;84.50
7159;DHT22;63175;52.374;13.132;2023-05-31T05:59:03;16.20;84.10
7159;DHT22;63175;52.374;13.132;2023-05-31T06:01:30;16.20;83.20
7159;DHT22;63175;52.374;13.132;2023-05-31T06:03:58;16.40;82.50
7159;DHT22;63175;52.374;13.132;2023-05-31T06:06:26;16.50;81.50
7159;DHT22;63175;52.374;13.132;2023-05-31T06:08:52;16.60;81.20
7159;DHT22;63175;52.374;13.132;2023-05-31T06:11:19;16.70;80.00
7159;DHT22;63175;52.374;13.132;2023-05-31T06:13:48;16.80;79.40
7159;DHT22;63175;52.374;13.132;2023-05-31T06:16:15;17.00;78.60
7159;DHT22;63175;52.374;13.132;2023-05-31T06:18:41;17.10;77.90
7159;DHT22;63175;52.374;13.132;2023-05-31T06:21:10;17.30;77.40
7159;DHT22;63175;52.374;13.132;2023-05-31T06:23:36;17.50;76.90
7159;DHT22;63175;52.374;13.132;2023-05-31T06:26:03;17.60;76.30
7159;DHT22;63175;52.374;13.132;2023-05-31T06:28:30;17.80;75.80
7159;DHT22;63175;52.374;13.132;2023-05-31T06:30:58;18.00;75.20
7159;DHT22;63175;52.374;13.132;2023-05-31T06:33:26;18.10;74.60
7159;DHT22;63175;52.374;13.132;2023-05-31T06:35:53;18.30;73.40
7159;DHT22;63175;52.374;13.132;2023-05-31T06:38:21;18.40;71.90
7159;DHT22;63175;52.374;13.132;2023-05-31T06:40:49;18.50;71.20
7159;DHT22;63175;52.374;13.132;2023-05-31T06:43:15;18.70;71.00
7159;DHT22;63175;52.374;13.132;2023-05-31T06:45:42;18.90;70.90
7159;DHT22;63175;52.374;13.132;2023-05-31T06:48:09;19.10;71.00
7159;DHT22;63175;52.374;13.132;2023-05-31T06:50:37;19.20;70.80
7159;DHT22;63175;52.374;13.132;2023-05-31T06:53:04;19.40;69.80
7159;DHT22;63175;52.374;13.132;2023-05-31T06:55:32;19.50;68.70
7159;DHT22;63175;52.374;13.132;2023-05-31T06:58:00;19.60;67.90
7159;DHT22;63175;52.374;13.132;2023-05-31T07:00:28;19.80;67.60
7159;DHT22;63175;52.374;13.132;2023-05-31T07:02:54;19.90;67.80
7159;DHT22;63175;52.374;13.132;2023-05-31T07:05:21;20.00;68.40
7159;DHT22;63175;52.374;13.132;2023-05-31T07:07:48;20.00;68.80
7159;DHT22;63175;52.374;13.132;2023-05-31T07:10:15;20.20;68.50
7159;DHT22;63175;52.374;13.132;2023-05-31T07:12:43;20.30;68.30
7159;DHT22;63175;52.374;13.132;2023-05-31T07:15:11;20.40;68.10
7159;DHT22;63175;52.374;13.132;2023-05-31T07:17:38;20.60;67.90
7159;DHT22;63175;52.374;13.132;2023-05-31T07:20:06;20.70;67.40
7159;DHT22;63175;52.374;13.132;2023-05-31T07:22:33;20.80;67.10
7159;DHT22;63175;52.374;13.132;2023-05-31T07:25:00;20.90;66.40
7159;DHT22;63175;52.374;13.132;2023-05-31T07:27:29;21.10;65.80
7159;DHT22;63175;52.374;13.132;2023-05-31T07:29:57;21.20;65.00
7159;DHT22;63175;52.374;13.132;2023-05-31T07:32:24;21.30;64.30
7159;DHT22;63175;52.374;13.132;2023-05-31T07:34:51;21.40;63.70
7159;DHT22;63175;52.374;13.132;2023-05-31T07:37:18;21.50;63.10
7159;DHT22;63175;52.374;13.132;2023-05-31T07:39:45;21.70;62.70
7159;DHT22;63175;52.374;13.132;2023-05-31T07:42:12;21.80;62.30
7159;DHT22;63175;52.374;13.132;2023-05-31T07:44:39;21.90;61.60
7159;DHT22;63175;52.374;13.132;2023-05-31T07:47:08;22.10;60.80
7159;DHT22;63175;52.374;13.132;2023-05-31T07:49:35;22.30;59.90
7159;DHT22;63175;52.374;13.132;2023-05-31T07:52:01;22.30;58.70
7159;DHT22;63175;52.374;13.132;2023-05-31T07:54:30;22.40;57.50
7159;DHT22;63175;52.374;13.132;2023-05-31T07:56:56;22.50;56.90
7159;DHT22;63175;52.374;13.132;2023-05-31T07:59:23;22.60;57.00
7159;DHT22;63175;52.374;13.132;2023-05-31T08:01:51;22.80;56.50
7159;DHT22;63175;52.374;13.132;2023-05-31T08:04:20;22.90;55.90
7159;DHT22;63175;52.374;13.132;2023-05-31T08:06:47;23.10;55.90
7159;DHT22;63175;52.374;13.132;2023-05-31T08:09:14;23.20;55.40
7159;DHT22;63175;52.374;13.132;2023-05-31T08:11:41;23.30;54.00
7159;DHT22;63175;52.374;13.132;2023-05-31T08:14:08;23.40;53.40
7159;DHT22;63175;52.374;13.132;2023-05-31T08:16:34;23.50;53.00
7159;DHT22;63175;52.374;13.132;2023-05-31T08:19:02;23.60;52.80
7159;DHT22;63175;52.374;13.132;2023-05-31T08:21:30;23.70;52.00
7159;DHT22;63175;52.374;13.132;2023-05-31T08:23:58;23.90;50.20
7159;DHT22;63175;52.374;13.132;2023-05-31T08:26:26;24.00;48.80
7159;DHT22;63175;52.374;13.132;2023-05-31T08:28:53;24.10;48.50
7159;DHT22;63175;52.374;13.132;2023-05-31T08:31:20;24.20;48.60
7159;DHT22;63175;52.374;13.132;2023-05-31T08:33:53;24.30;48.40
7159;DHT22;63175;52.374;13.132;2023-05-31T08:36:21;24.40;48.30
7159;DHT22;63175;52.374;13.132;2023-05-31T08:38:50;24.50;48.30
7159;DHT22;63175;52.374;13.132;2023-05-31T08:41:17;24.70;47.20
7159;DHT22;63175;52.374;13.132;2023-05-31T08:43:44;24.80;46.30
7159;DHT22;63175;52.374;13.132;2023-05-31T08:46:11;25.00;45.60
7159;DHT22;63175;52.374;13.132;2023-05-31T08:48:44;25.10;45.10
7159;DHT22;63175;52.374;13.132;2023-05-31T08:51:13;25.20;45.80
7159;DHT22;63175;52.374;13.132;2023-05-31T08:53:41;25.30;45.60
7159;DHT22;63175;52.374;13.132;2023-05-31T08:56:10;25.40;45.80
7159;DHT22;63175;52.374;13.132;2023-05-31T08:58:38;25.50;45.70
7159;DHT22;63175;52.374;13.132;2023-05-31T09:01:06;25.60;45.80
7159;DHT22;63175;52.374;13.132;2023-05-31T09:03:34;25.70;45.30
7159;DHT22;63175;52.374;13.132;2023-05-31T09:06:01;25.70;45.20
7159;DHT22;63175;52.374;13.132;2023-05-31T09:08:29;25.90;45.00
7159;DHT22;63175;52.374;13.132;2023-05-31T09:10:59;26.10;45.60
7159;DHT22;63175;52.374;13.132;2023-05-31T09:13:28;26.30;44.30
7159;DHT22;63175;52.374;13.132;2023-05-31T09:15:55;26.50;43.50
7159;DHT22;63175;52.374;13.132;2023-05-31T09:18:23;26.50;43.30
7159;DHT22;63175;52.374;13.132;2023-05-31T09:20:56;26.60;42.90
7159;DHT22;63175;52.374;13.132;2023-05-31T09:23:23;26.70;43.00
7159;DHT22;63175;52.374;13.132;2023-05-31T09:25:51;26.90;42.10
7159;DHT22;63175;52.374;13.132;2023-05-31T09:28:19;27.20;42.00
7159;DHT22;63175;52.374;13.132;2023-05-31T09:31:00;27.40;41.60
7159;DHT22;63175;52.374;13.132;2023-05-31T09:33:37;27.70;41.30
7159;DHT22;63175;52.374;13.132;2023-05-31T09:36:04;27.90;40.60
7159;DHT22;63175;52.374;13.132;2023-05-31T09:38:31;28.10;39.90
7159;DHT22;63175;52.374;13.132;2023-05-31T09:41:11;28.20;39.70
7159;DHT22;63175;52.374;13.132;2023-05-31T09:43:39;28.20;39.40
7159;DHT22;63175;52.374;13.132;2023-05-31T09:46:12;28.00;39.40
7159;DHT22;63175;52.374;13.132;2023-05-31T09:48:40;28.00;39.40
7159;DHT22;63175;52.374;13.132;2023-05-31T09:51:08;28.10;39.00
7159;DHT22;63175;52.374;13.132;2023-05-31T09:53:39;28.20;39.00
7159;DHT22;63175;52.374;13.132;2023-05-31T09:56:10;28.30;39.10
7159;DHT22;63175;52.374;13.132;2023-05-31T09:58:37;28.50;38.50
7159;DHT22;63175;52.374;13.132;2023-05-31T10:01:05;28.60;38.20
7159;DHT22;63175;52.374;13.132;2023-05-31T10:03:34;28.90;38.20
7159;DHT22;63175;52.374;13.132;2023-05-31T10:06:02;29.20;37.80
7159;DHT22;63175;52.374;13.132;2023-05-31T10:08:29;29.40;37.00
7159;DHT22;63175;52.374;13.132;2023-05-31T10:10:58;29.60;37.00
7159;DHT22;63175;52.374;13.132;2023-05-31T10:13:27;29.70;36.50
7159;DHT22;63175;52.374;13.132;2023-05-31T10:15:55;29.80;36.30
7159;DHT22;63175;52.374;13.132;2023-05-31T10:18:27;29.90;36.40
7159;DHT22;63175;52.374;13.132;2023-05-31T10:20:59;30.00;35.90
7159;DHT22;63175;52.374;13.132;2023-05-31T10:23:26;30.20;35.70
7159;DHT22;63175;52.374;13.132;2023-05-31T10:26:12;30.20;35.70
7159;DHT22;63175;52.374;13.132;2023-05-31T10:28:45;30.20;35.30
7159;DHT22;63175;52.374;13.132;2023-05-31T10:31:14;30.20;34.90
7159;DHT22;63175;52.374;13.132;2023-05-31T10:33:47;30.20;34.70
7159;DHT22;63175;52.374;13.132;2023-05-31T10:36:16;30.10;34.80
7159;DHT22;63175;52.374;13.132;2023-05-31T10:38:48;30.00;34.70
7159;DHT22;63175;52.374;13.132;2023-05-31T10:41:20;30.00;34.40
7159;DHT22;63175;52.374;13.132;2023-05-31T10:43:52;30.00;34.40
7159;DHT22;63175;52.374;13.132;2023-05-31T10:46:24;30.10;34.30
7159;DHT22;63175;52.374;13.132;2023-05-31T10:48:53;30.00;33.20
7159;DHT22;63175;52.374;13.132;2023-05-31T10:51:37;30.20;33.50
7159;DHT22;63175;52.374;13.132;2023-05-31T10:54:04;30.20;33.80
7159;DHT22;63175;52.374;13.132;2023-05-31T10:56:31;30.00;34.00
7159;DHT22;63175;52.374;13.132;2023-05-31T10:58:58;30.00;34.20
7159;DHT22;63175;52.374;13.132;2023-05-31T11:01:28;30.00;34.10
7159;DHT22;63175;52.374;13.132;2023-05-31T11:03:56;29.90;34.10
7159;DHT22;63175;52.374;13.132;2023-05-31T11:06:25;29.90;34.30
7159;DHT22;63175;52.374;13.132;2023-05-31T11:08:57;30.00;34.30
7159;DHT22;63175;52.374;13.132;2023-05-31T11:11:28;30.00;34.70
7159;DHT22;63175;52.374;13.132;2023-05-31T11:14:23;30.10;35.00
7159;DHT22;63175;52.374;13.132;2023-05-31T11:17:13;30.20;34.90
7159;DHT22;63175;52.374;13.132;2023-05-31T11:19:41;30.30;35.00
7159;DHT22;63175;52.374;13.132;2023-05-31T11:22:14;30.40;34.80
7159;DHT22;63175;52.374;13.132;2023-05-31T11:24:49;30.70;34.70
7159;DHT22;63175;52.374;13.132;2023-05-31T11:27:17;30.90;34.50
7159;DHT22;63175;52.374;13.132;2023-05-31T11:29:57;30.90;34.30
7159;DHT22;63175;52.374;13.132;2023-05-31T11:35:34;30.90;33.80
7159;DHT22;63175;52.374;13.132;2023-05-31T11:38:04;31.00;33.70
7159;DHT22;63175;52.374;13.132;2023-05-31T11:40:32;30.90;33.60
7159;DHT22;63175;52.374;13.132;2023-05-31T11:43:06;31.00;33.60
7159;DHT22;63175;52.374;13.132;2023-05-31T11:45:34;31.00;33.40
7159;DHT22;63175;52.374;13.132;2023-05-31T11:48:18;30.90;33.30
7159;DHT22;63175;52.374;13.132;2023-05-31T11:50:46;30.90;33.30
7159;DHT22;63175;52.374;13.132;2023-05-31T11:53:14;30.90;33.20
7159;DHT22;63175;52.374;13.132;2023-05-31T11:55:45;31.10;32.80
7159;DHT22;63175;52.374;13.132;2023-05-31T11:58:13;31.30;32.60
7159;DHT22;63175;52.374;13.132;2023-05-31T12:00:43;31.40;32.10
7159;DHT22;63175;52.374;13.132;2023-05-31T12:03:14;31.60;31.80
7159;DHT22;63175;52.374;13.132;2023-05-31T12:05:42;31.70;31.80
7159;DHT22;63175;52.374;13.132;2023-05-31T12:08:10;31.80;31.70
7159;DHT22;63175;52.374;13.132;2023-05-31T12:10:40;31.70;31.80
7159;DHT22;63175;52.374;13.132;2023-05-31T12:13:07;31.60;31.90
7159;DHT22;63175;52.374;13.132;2023-05-31T12:15:35;31.60;32.20
7159;DHT22;63175;52.374;13.132;2023-05-31T12:18:02;31.60;32.00
7159;DHT22;63175;52.374;13.132;2023-05-31T12:20:29;31.70;31.50
7159;DHT22;63175;52.374;13.132;2023-05-31T12:23:09;31.60;31.10
7159;DHT22;63175;52.374;13.132;2023-05-31T12:25:36;31.70;31.40
7159;DHT22;63175;52.374;13.132;2023-05-31T12:28:04;31.80;31.50
7159;DHT22;63175;52.374;13.132;2023-05-31T12:30:31;32.00;31.30
7159;DHT22;63175;52.374;13.132;2023-05-31T12:32:58;32.00;31.10
7159;DHT22;63175;52.374;13.132;2023-05-31T12:35:25;32.00;30.70
7159;DHT22;63175;52.374;13.132;2023-05-31T12:37:52;32.00;30.70
7159;DHT22;63175;52.374;13.132;2023-05-31T12:40:20;32.10;30.80
7159;DHT22;63175;52.374;13.132;2023-05-31T12:42:48;32.10;30.80
7159;DHT22;63175;52.374;13.132;2023-05-31T12:45:18;32.20;30.50
7159;DHT22;63175;52.374;13.132;2023-05-31T12:47:56;32.30;30.10
7159;DHT22;63175;52.374;13.132;2023-05-31T12:50:23;32.40;30.00
7159;DHT22;63175;52.374;13.132;2023-05-31T12:52:55;32.40;29.70
7159;DHT22;63175;52.374;13.132;2023-05-31T12:55:22;32.40;29.60
7159;DHT22;63175;52.374;13.132;2023-05-31T12:57:49;32.40;29.30
7159;DHT22;63175;52.374;13.132;2023-05-31T13:00:18;32.50;29.20
7159;DHT22;63175;52.374;13.132;2023-05-31T13:02:45;32.70;28.90
7159;DHT22;63175;52.374;13.132;2023-05-31T13:05:12;32.80;28.80
7159;DHT22;63175;52.374;13.132;2023-05-31T13:07:38;33.00;28.30
7159;DHT22;63175;52.374;13.132;2023-05-31T13:10:06;33.10;28.30
7159;DHT22;63175;52.374;13.132;2023-05-31T13:12:34;33.30;28.40
7159;DHT22;63175;52.374;13.132;2023-05-31T13:15:01;33.50;28.50
7159;DHT22;63175;52.374;13.132;2023-05-31T13:17:29;33.60;28.60
7159;DHT22;63175;52.374;13.132;2023-05-31T13:19:56;33.70;28.60
7159;DHT22;63175;52.374;13.132;2023-05-31T13:22:23;33.60;28.70
7159;DHT22;63175;52.374;13.132;2023-05-31T13:24:50;33.60;28.80
7159;DHT22;63175;52.374;13.132;2023-05-31T13:27:17;33.50;28.60
7159;DHT22;63175;52.374;13.132;2023-05-31T13:29:44;33.60;28.60
7159;DHT22;63175;52.374;13.132;2023-05-31T13:32:11;33.70;28.60
7159;DHT22;63175;52.374;13.132;2023-05-31T13:34:40;33.70;28.60
7159;DHT22;63175;52.374;13.132;2023-05-31T13:37:06;33.80;28.50
7159;DHT22;63175;52.374;13.132;2023-05-31T13:39:33;33.90;28.40
7159;DHT22;63175;52.374;13.132;2023-05-31T13:42:00;33.80;28.40
7159;DHT22;63175;52.374;13.132;2023-05-31T13:44:28;33.60;28.40
7159;DHT22;63175;52.374;13.132;2023-05-31T13:46:54;33.40;28.50
7159;DHT22;63175;52.374;13.132;2023-05-31T13:49:22;33.30;28.40
7159;DHT22;63175;52.374;13.132;2023-05-31T13:51:50;33.10;28.30
7159;DHT22;63175;52.374;13.132;2023-05-31T13:54:17;33.00;28.30
7159;DHT22;63175;52.374;13.132;2023-05-31T13:56:44;33.10;28.40
7159;DHT22;63175;52.374;13.132;2023-05-31T13:59:11;33.30;28.50
7159;DHT22;63175;52.374;13.132;2023-05-31T14:01:38;33.60;28.50
7159;DHT22;63175;52.374;13.132;2023-05-31T14:04:05;33.80;28.40
7159;DHT22;63175;52.374;13.132;2023-05-31T14:06:33;33.90;28.10
7159;DHT22;63175;52.374;13.132;2023-05-31T14:09:02;33.80;27.80
7159;DHT22;63175;52.374;13.132;2023-05-31T14:11:29;33.70;27.90
7159;DHT22;63175;52.374;13.132;2023-05-31T14:13:56;33.50;28.00
7159;DHT22;63175;52.374;13.132;2023-05-31T14:16:23;33.30;27.90
7159;DHT22;63175;52.374;13.132;2023-05-31T14:18:50;33.10;28.10
7159;DHT22;63175;52.374;13.132;2023-05-31T14:21:17;33.10;28.30
7159;DHT22;63175;52.374;13.132;2023-05-31T14:23:44;33.10;28.40
7159;DHT22;63175;52.374;13.132;2023-05-31T14:26:12;33.20;28.30
7159;DHT22;63175;52.374;13.132;2023-05-31T14:28:39;33.40;28.10
7159;DHT22;63175;52.374;13.132;2023-05-31T14:31:05;33.60;27.80
7159;DHT22;63175;52.374;13.132;2023-05-31T14:33:32;33.60;27.70
7159;DHT22;63175;52.374;13.132;2023-05-31T14:35:59;33.70;27.90
7159;DHT22;63175;52.374;13.132;2023-05-31T14:38:26;33.80;28.10
7159;DHT22;63175;52.374;13.132;2023-05-31T14:40:53;33.80;27.80
7159;DHT22;63175;52.374;13.132;2023-05-31T14:43:21;33.80;27.80
7159;DHT22;63175;52.374;13.132;2023-05-31T14:45:48;33.70;27.40
7159;DHT22;63175;52.374;13.132;2023-05-31T14:48:15;33.50;27.50
7159;DHT22;63175;52.374;13.132;2023-05-31T14:50:41;33.30;27.50
7159;DHT22;63175;52.374;13.132;2023-05-31T14:53:09;33.10;27.70
7159;DHT22;63175;52.374;13.132;2023-05-31T14:55:37;33.00;27.70
7159;DHT22;63175;52.374;13.132;2023-05-31T14:58:04;32.90;27.70
7159;DHT22;63175;52.374;13.132;2023-05-31T15:00:33;32.80;27.50
7159;DHT22;63175;52.374;13.132;2023-05-31T15:03:00;32.60;27.40
7159;DHT22;63175;52.374;13.132;2023-05-31T15:05:27;32.50;27.50
7159;DHT22;63175;52.374;13.132;2023-05-31T15:07:54;32.30;27.20
7159;DHT22;63175;52.374;13.132;2023-05-31T15:10:21;32.20;27.20
7159;DHT22;63175;52.374;13.132;2023-05-31T15:12:51;32.20;27.00
7159;DHT22;63175;52.374;13.132;2023-05-31T15:15:18;32.00;26.20
7159;DHT22;63175;52.374;13.132;2023-05-31T15:17:47;32.00;25.70
7159;DHT22;63175;52.374;13.132;2023-05-31T15:20:14;31.90;25.30
7159;DHT22;63175;52.374;13.132;2023-05-31T15:22:40;31.90;24.90
7159;DHT22;63175;52.374;13.132;2023-05-31T15:25:08;31.80;26.00
7159;DHT22;63175;52.374;13.132;2023-05-31T15:27:35;31.70;26.70
7159;DHT22;63175;52.374;13.132;2023-05-31T15:30:02;31.60;27.00
7159;DHT22;63175;52.374;13.132;2023-05-31T15:32:30;31.40;27.30
7159;DHT22;63175;52.374;13.132;2023-05-31T15:34:58;31.30;27.60
7159;DHT22;63175;52.374;13.132;2023-05-31T15:37:25;31.30;27.70
7159;DHT22;63175;52.374;13.132;2023-05-31T15:39:52;31.20;27.70